sensor_id;sensor_type;location;lat;lon;timestamp;temperature;humidity
31975;DHT22;18500;43.618;1.474;2023-01-30T05:36:21;3.20;1.00
31975;DHT22;18500;43.618;1.474;2023-01-30T05:38:47;3.10;1.00
31975;DHT22;18500;43.618;1.474;2023-01-30T05:41:14;3.00;1.00
31975;DHT22;18500;43.618;1.474;2023-01-30T05:43:41;3.00;1.00
31975;DHT22;18500;43.618;1.474;2023-01-30T05:46:08;3.10;1.00
31975;DHT22;18500;43.618;1.474;2023-01-30T05:48:34;3.10;1.00
31975;DHT22;18500;43.618;1.474;2023-01-30T05:51:00;3.20;1.00
31975;DHT22;18500;43.618;1.474;2023-01-30T05:53:27;3.10;1.00
31975;DHT22;18500;43.618;1.474;2023-01-30T05:55:58;2.90;1.00
31975;DHT22;18500;43.618;1.474;2023-01-30T05:58:24;2.80;1.00
31975;DHT22;18500;43.618;1.474;2023-01-30T06:00:50;2.80;1.00
31975;DHT22;18500;43.618;1.474;2023-01-30T06:03:16;2.70;1.00
31975;DHT22;18500;43.618;1.474;2023-01-30T06:05:42;2.70;1.00
31975;DHT22;18500;43.618;1.474;2023-01-30T06:08:08;2.90;1.00
31975;DHT22;18500;43.618;1.474;2023-01-30T06:10:34;2.80;1.00
31975;DHT22;18500;43.618;1.474;2023-01-30T06:13:00;3.00;1.00
31975;DHT22;18500;43.618;1.474;2023-01-30T06:15:26;3.10;1.00
31975;DHT22;18500;43.618;1.474;2023-01-30T06:17:51;3.10;1.00
31975;DHT22;18500;43.618;1.474;2023-01-30T06:20:17;3.10;1.00
31975;DHT22;18500;43.618;1.474;2023-01-30T06:22:43;2.90;1.00
31975;DHT22;18500;43.618;1.474;2023-01-30T06:25:09;3.00;1.00
31975;DHT22;18500;43.618;1.474;2023-01-30T06:27:34;3.00;1.00
31975;DHT22;18500;43.618;1.474;2023-01-30T06:30:00;3.00;1.00
31975;DHT22;18500;43.618;1.474;2023-01-30T06:32:26;3.00;1.00
31975;DHT22;18500;43.618;1.474;2023-01-30T06:34:51;3.00;1.00
31975;DHT22;18500;43.618;1.474;2023-01-30T06:37:17;3.00;1.00
31975;DHT22;18500;43.618;1.474;2023-01-30T06:39:43;2.90;1.00
31975;DHT22;18500;43.618;1.474;2023-01-30T06:42:08;2.90;1.00
31975;DHT22;18500;43.618;1.474;2023-01-30T06:44:34;2.90;1.00
31975;DHT22;18500;43.618;1.474;2023-01-30T06:47:00;2.90;1.00
31975;DHT22;18500;43.618;1.474;2023-01-30T06:49:25;2.90;1.00
31975;DHT22;18500;43.618;1.474;2023-01-30T06:51:51;2.90;1.00
31975;DHT22;18500;43.618;1.474;2023-01-30T06:54:16;2.90;1.00
31975;DHT22;18500;43.618;1.474;2023-01-30T06:56:42;2.90;1.00
31975;DHT22;18500;43.618;1.474;2023-01-30T06:59:08;2.90;1.00
31975;DHT22;18500;43.618;1.474;2023-01-30T07:01:33;2.90;1.00
31975;DHT22;18500;43.618;1.474;2023-01-30T07:03:59;2.90;1.00
31975;DHT22;18500;43.618;1.474;2023-01-30T07:06:28;2.90;1.00
31975;DHT22;18500;43.618;1.474;2023-01-30T07:08:53;2.90;1.00
31975;DHT22;18500;43.618;1.474;2023-01-30T07:11:23;2.90;1.00
31975;DHT22;18500;43.618;1.474;2023-01-30T07:13:48;2.90;1.00
31975;DHT22;18500;43.618;1.474;2023-01-30T07:16:14;2.90;1.00
31975;DHT22;18500;43.618;1.474;2023-01-30T07:18:40;2.90;1.00
31975;DHT22;18500;43.618;1.474;2023-01-30T07:21:05;2.90;1.00
31975;DHT22;18500;43.618;1.474;2023-01-30T07:23:31;3.00;1.00
31975;DHT22;18500;43.618;1.474;2023-01-30T07:25:57;3.00;1.00
31975;DHT22;18500;43.618;1.474;2023-01-30T07:28:22;3.00;1.00
31975;DHT22;18500;43.618;1.474;2023-01-30T07:30:48;2.90;1.00
31975;DHT22;18500;43.618;1.474;2023-01-30T07:33:17;3.00;1.00
31975;DHT22;18500;43.618;1.474;2023-01-30T07:35:43;3.00;1.00
31975;DHT22;18500;43.618;1.474;2023-01-30T07:38:08;2.90;1.00
31975;DHT22;18500;43.618;1.474;2023-01-30T07:40:34;2.90;1.00
31975;DHT22;18500;43.618;1.474;2023-01-30T07:43:05;3.00;1.00
31975;DHT22;18500;43.618;1.474;2023-01-30T07:45:39;3.00;1.00
31975;DHT22;18500;43.618;1.474;2023-01-30T07:48:09;3.00;1.00
31975;DHT22;18500;43.618;1.474;2023-01-30T07:50:36;3.00;1.00
31975;DHT22;18500;43.618;1.474;2023-01-30T07:53:03;3.00;1.00
31975;DHT22;18500;43.618;1.474;2023-01-30T07:55:29;2.90;1.00
31975;DHT22;18500;43.618;1.474;2023-01-30T07:57:55;2.80;1.00
31975;DHT22;18500;43.618;1.474;2023-01-30T08:00:21;2.90;1.00
31975;DHT22;18500;43.618;1.474;2023-01-30T08:02:46;2.90;1.00
31975;DHT22;18500;43.618;1.474;2023-01-30T08:05:12;2.80;1.00
31975;DHT22;18500;43.618;1.474;2023-01-30T08:07:38;2.90;1.00
31975;DHT22;18500;43.618;1.474;2023-01-30T08:10:04;2.90;1.00
31975;DHT22;18500;43.618;1.474;2023-01-30T08:12:30;2.80;1.00
31975;DHT22;18500;43.618;1.474;2023-01-30T08:14:55;2.70;1.00
31975;DHT22;18500;43.618;1.474;2023-01-30T08:17:21;2.80;1.00
31975;DHT22;18500;43.618;1.474;2023-01-30T08:19:47;2.80;1.00
31975;DHT22;18500;43.618;1.474;2023-01-30T08:22:13;2.80;1.00
31975;DHT22;18500;43.618;1.474;2023-01-30T08:24:39;2.90;1.00
31975;DHT22;18500;43.618;1.474;2023-01-30T08:27:04;3.00;1.00
31975;DHT22;18500;43.618;1.474;2023-01-30T08:29:30;3.10;1.00
31975;DHT22;18500;43.618;1.474;2023-01-30T08:31:59;3.10;1.00
31975;DHT22;18500;43.618;1.474;2023-01-30T08:34:25;3.20;1.00
31975;DHT22;18500;43.618;1.474;2023-01-30T08:36:52;3.20;1.00
31975;DHT22;18500;43.618;1.474;2023-01-30T08:39:17;3.30;1.00
31975;DHT22;18500;43.618;1.474;2023-01-30T08:41:43;3.30;1.00
31975;DHT22;18500;43.618;1.474;2023-01-30T08:44:09;3.20;1.00
31975;DHT22;18500;43.618;1.474;2023-01-30T08:46:36;3.20;1.00
31975;DHT22;18500;43.618;1.474;2023-01-30T08:49:02;3.20;1.00
31975;DHT22;18500;43.618;1.474;2023-01-30T08:51:28;3.20;1.00
31975;DHT22;18500;43.618;1.474;2023-01-30T08:53:53;3.10;1.00
31975;DHT22;18500;43.618;1.474;2023-01-30T08:56:19;3.20;1.00
31975;DHT22;18500;43.618;1.474;2023-01-30T08:58:45;3.20;1.00
31975;DHT22;18500;43.618;1.474;2023-01-30T09:01:11;3.20;1.00
31975;DHT22;18500;43.618;1.474;2023-01-30T09:03:37;3.30;1.00
31975;DHT22;18500;43.618;1.474;2023-01-30T09:06:03;3.30;1.00
31975;DHT22;18500;43.618;1.474;2023-01-30T09:08:29;3.40;1.00
31975;DHT22;18500;43.618;1.474;2023-01-30T09:10:59;3.40;1.00
31975;DHT22;18500;43.618;1.474;2023-01-30T09:13:25;3.50;1.00
31975;DHT22;18500;43.618;1.474;2023-01-30T09:15:51;3.60;1.00
31975;DHT22;18500;43.618;1.474;2023-01-30T09:18:17;3.80;1.00
31975;DHT22;18500;43.618;1.474;2023-01-30T09:20:43;3.90;1.00
31975;DHT22;18500;43.618;1.474;2023-01-30T09:23:08;4.00;1.00
31975;DHT22;18500;43.618;1.474;2023-01-30T09:25:34;4.30;1.00
31975;DHT22;18500;43.618;1.474;2023-01-30T09:28:00;4.30;1.00
31975;DHT22;18500;43.618;1.474;2023-01-30T09:30:25;4.50;1.00
31975;DHT22;18500;43.618;1.474;2023-01-30T09:32:51;4.60;1.00
31975;DHT22;18500;43.618;1.474;2023-01-30T09:35:17;4.70;1.00
31975;DHT22;18500;43.618;1.474;2023-01-30T09:37:50;4.70;1.00
31975;DHT22;18500;43.618;1.474;2023-01-30T09:40:19;4.80;1.00
31975;DHT22;18500;43.618;1.474;2023-01-30T09:45:43;4.60;1.00
31975;DHT22;18500;43.618;1.474;2023-01-30T09:48:20;4.40;1.00
31975;DHT22;18500;43.618;1.474;2023-01-30T09:56:21;4.20;1.00
31975;DHT22;18500;43.618;1.474;2023-01-30T09:58:52;4.40;1.00
31975;DHT22;18500;43.618;1.474;2023-01-30T10:04:28;4.60;1.00
31975;DHT22;18500;43.618;1.474;2023-01-30T10:12:22;4.30;1.00
31975;DHT22;18500;43.618;1.474;2023-01-30T10:23:19;4.80;1.00
31975;DHT22;18500;43.618;1.474;2023-01-30T10:25:53;4.80;1.00
31975;DHT22;18500;43.618;1.474;2023-01-30T10:31:15;4.80;1.00
31975;DHT22;18500;43.618;1.474;2023-01-30T10:34:05;4.90;1.00
31975;DHT22;18500;43.618;1.474;2023-01-30T10:36:38;5.00;1.00
31975;DHT22;18500;43.618;1.474;2023-01-30T10:39:49;5.10;1.00
31975;DHT22;18500;43.618;1.474;2023-01-30T10:42:17;5.20;1.00
31975;DHT22;18500;43.618;1.474;2023-01-30T10:44:47;5.10;1.00
31975;DHT22;18500;43.618;1.474;2023-01-30T10:50:17;5.00;1.00
31975;DHT22;18500;43.618;1.474;2023-01-30T10:53:33;5.10;1.00
31975;DHT22;18500;43.618;1.474;2023-01-30T10:55:47;5.30;1.00
31975;DHT22;18500;43.618;1.474;2023-01-30T10:58:25;5.30;1.00
31975;DHT22;18500;43.618;1.474;2023-01-30T11:01:06;5.30;1.00
31975;DHT22;18500;43.618;1.474;2023-01-30T11:03:56;5.20;1.00
31975;DHT22;18500;43.618;1.474;2023-01-30T11:06:26;5.20;1.00
31975;DHT22;18500;43.618;1.474;2023-01-30T11:08:53;5.30;1.00
31975;DHT22;18500;43.618;1.474;2023-01-30T11:14:11;5.30;1.00
31975;DHT22;18500;43.618;1.474;2023-01-30T11:19:12;5.70;1.00
31975;DHT22;18500;43.618;1.474;2023-01-30T11:21:39;5.30;1.00
31975;DHT22;18500;43.618;1.474;2023-01-30T11:24:19;5.10;1.00
31975;DHT22;18500;43.618;1.474;2023-01-30T11:26:45;5.30;1.00
31975;DHT22;18500;43.618;1.474;2023-01-30T11:31:40;5.50;1.00
31975;DHT22;18500;43.618;1.474;2023-01-30T11:34:12;5.60;1.00
31975;DHT22;18500;43.618;1.474;2023-01-30T11:36:40;5.90;1.00
31975;DHT22;18500;43.618;1.474;2023-01-30T11:44:28;6.10;1.00
31975;DHT22;18500;43.618;1.474;2023-01-30T11:46:58;6.20;1.00
31975;DHT22;18500;43.618;1.474;2023-01-30T11:49:30;6.40;1.00
31975;DHT22;18500;43.618;1.474;2023-01-30T11:51:58;6.50;1.00
31975;DHT22;18500;43.618;1.474;2023-01-30T11:54:37;6.40;1.00
31975;DHT22;18500;43.618;1.474;2023-01-30T11:57:08;6.50;1.00
31975;DHT22;18500;43.618;1.474;2023-01-30T11:59:47;6.50;1.00
31975;DHT22;18500;43.618;1.474;2023-01-30T12:02:22;6.30;1.00
31975;DHT22;18500;43.618;1.474;2023-01-30T12:04:51;6.30;1.00
31975;DHT22;18500;43.618;1.474;2023-01-30T12:07:29;6.80;1.00
31975;DHT22;18500;43.618;1.474;2023-01-30T12:09:57;6.80;1.00
31975;DHT22;18500;43.618;1.474;2023-01-30T12:12:36;6.80;1.00
31975;DHT22;18500;43.618;1.474;2023-01-30T12:15:43;6.80;1.00
31975;DHT22;18500;43.618;1.474;2023-01-30T12:18:23;6.40;1.00
31975;DHT22;18500;43.618;1.474;2023-01-30T12:21:02;6.40;1.00
31975;DHT22;18500;43.618;1.474;2023-01-30T12:23:43;6.50;1.00
31975;DHT22;18500;43.618;1.474;2023-01-30T12:26:32;6.70;1.00
31975;DHT22;18500;43.618;1.474;2023-01-30T12:29:22;6.60;1.00
31975;DHT22;18500;43.618;1.474;2023-01-30T12:34:24;6.80;1.00
31975;DHT22;18500;43.618;1.474;2023-01-30T12:37:03;6.70;1.00
31975;DHT22;18500;43.618;1.474;2023-01-30T12:40:05;6.60;1.00
31975;DHT22;18500;43.618;1.474;2023-01-30T12:45:33;6.50;1.00
31975;DHT22;18500;43.618;1.474;2023-01-30T12:50:56;6.70;1.00
31975;DHT22;18500;43.618;1.474;2023-01-30T12:53:38;6.50;1.00
31975;DHT22;18500;43.618;1.474;2023-01-30T13:05:24;7.50;1.00
31975;DHT22;18500;43.618;1.474;2023-01-30T13:10:43;8.20;1.00
31975;DHT22;18500;43.618;1.474;2023-01-30T13:16:03;7.00;1.00
31975;DHT22;18500;43.618;1.474;2023-01-30T13:18:56;7.10;1.00
31975;DHT22;18500;43.618;1.474;2023-01-30T13:21:35;6.90;1.00
31975;DHT22;18500;43.618;1.474;2023-01-30T13:26:41;6.60;1.00
31975;DHT22;18500;43.618;1.474;2023-01-30T13:29:30;7.10;1.00
31975;DHT22;18500;43.618;1.474;2023-01-30T13:32:00;7.10;1.00
31975;DHT22;18500;43.618;1.474;2023-01-30T13:34:42;7.10;1.00
31975;DHT22;18500;43.618;1.474;2023-01-30T13:37:19;6.70;1.00
31975;DHT22;18500;43.618;1.474;2023-01-30T13:39:54;7.00;1.00
31975;DHT22;18500;43.618;1.474;2023-01-30T13:42:44;7.00;1.00
31975;DHT22;18500;43.618;1.474;2023-01-30T13:45:35;7.30;1.00
31975;DHT22;18500;43.618;1.474;2023-01-30T14:09:43;7.80;1.00
31975;DHT22;18500;43.618;1.474;2023-01-30T14:12:24;7.80;1.00
31975;DHT22;18500;43.618;1.474;2023-01-30T14:22:59;7.20;1.00
31975;DHT22;18500;43.618;1.474;2023-01-30T14:32:59;7.00;1.00
31975;DHT22;18500;43.618;1.474;2023-01-30T14:35:30;7.20;1.00
31975;DHT22;18500;43.618;1.474;2023-01-30T14:40:33;6.80;1.00
31975;DHT22;18500;43.618;1.474;2023-01-30T14:45:50;7.20;1.00
31975;DHT22;18500;43.618;1.474;2023-01-30T14:50:48;7.30;1.00
31975;DHT22;18500;43.618;1.474;2023-01-30T14:53:14;7.10;1.00
31975;DHT22;18500;43.618;1.474;2023-01-30T14:55:40;7.00;1.00
31975;DHT22;18500;43.618;1.474;2023-01-30T14:58:14;7.20;1.00
31975;DHT22;18500;43.618;1.474;2023-01-30T15:00:42;7.20;1.00
31975;DHT22;18500;43.618;1.474;2023-01-30T15:03:16;7.30;1.00
31975;DHT22;18500;43.618;1.474;2023-01-30T15:05:44;7.30;1.00
31975;DHT22;18500;43.618;1.474;2023-01-30T15:08:19;7.10;1.00
31975;DHT22;18500;43.618;1.474;2023-01-30T15:11:04;6.90;1.00
31975;DHT22;18500;43.618;1.474;2023-01-30T15:13:57;6.90;1.00
31975;DHT22;18500;43.618;1.474;2023-01-30T15:25:24;6.90;1.00
31975;DHT22;18500;43.618;1.474;2023-01-30T15:30:50;7.00;1.00
31975;DHT22;18500;43.618;1.474;2023-01-30T15:33:23;7.10;1.00
31975;DHT22;18500;43.618;1.474;2023-01-30T15:35:49;7.30;1.00
31975;DHT22;18500;43.618;1.474;2023-01-30T15:40:54;7.40;1.00
31975;DHT22;18500;43.618;1.474;2023-01-30T15:48:45;7.00;1.00
31975;DHT22;18500;43.618;1.474;2023-01-30T15:51:15;6.90;1.00
31975;DHT22;18500;43.618;1.474;2023-01-30T15:53:45;6.90;1.00
31975;DHT22;18500;43.618;1.474;2023-01-30T15:56:20;6.60;1.00
31975;DHT22;18500;43.618;1.474;2023-01-30T15:58:47;6.70;1.00
31975;DHT22;18500;43.618;1.474;2023-01-30T16:01:18;7.20;1.00
31975;DHT22;18500;43.618;1.474;2023-01-30T16:03:45;7.00;1.00
31975;DHT22;18500;43.618;1.474;2023-01-30T16:09:19;7.10;1.00
31975;DHT22;18500;43.618;1.474;2023-01-30T16:11:45;7.10;1.00
31975;DHT22;18500;43.618;1.474;2023-01-30T16:14:14;7.10;1.00
31975;DHT22;18500;43.618;1.474;2023-01-30T16:17:04;7.00;1.00
31975;DHT22;18500;43.618;1.474;2023-01-30T16:19:31;6.80;1.00
31975;DHT22;18500;43.618;1.474;2023-01-30T16:22:05;6.60;1.00
31975;DHT22;18500;43.618;1.474;2023-01-30T16:24:36;6.50;1.00
31975;DHT22;18500;43.618;1.474;2023-01-30T16:27:05;6.40;1.00
31975;DHT22;18500;43.618;1.474;2023-01-30T16:29:35;6.30;1.00
31975;DHT22;18500;43.618;1.474;2023-01-30T16:32:12;6.20;1.00
31975;DHT22;18500;43.618;1.474;2023-01-30T16:34:39;6.10;1.00
31975;DHT22;18500;43.618;1.474;2023-01-30T16:37:22;6.10;1.00
31975;DHT22;18500;43.618;1.474;2023-01-30T16:42:38;5.70;1.00
31975;DHT22;18500;43.618;1.474;2023-01-30T16:47:35;5.40;1.00
31975;DHT22;18500;43.618;1.474;2023-01-30T16:50:03;5.20;1.00
31975;DHT22;18500;43.618;1.474;2023-01-30T16:52:43;5.20;1.00
31975;DHT22;18500;43.618;1.474;2023-01-30T16:55:23;5.00;1.00
31975;DHT22;18500;43.618;1.474;2023-01-30T16:58:01;5.00;1.00
31975;DHT22;18500;43.618;1.474;2023-01-30T17:00:33;5.10;1.00
31975;DHT22;18500;43.618;1.474;2023-01-30T17:03:02;5.10;1.00
31975;DHT22;18500;43.618;1.474;2023-01-30T17:05:35;4.90;1.00
31975;DHT22;18500;43.618;1.474;2023-01-30T17:08:02;4.80;1.00
31975;DHT22;18500;43.618;1.474;2023-01-30T17:18:55;4.90;1.00
31975;DHT22;18500;43.618;1.474;2023-01-30T17:21:24;4.90;1.00
31975;DHT22;18500;43.618;1.474;2023-01-30T17:24:03;4.80;1.00
31975;DHT22;18500;43.618;1.474;2023-01-30T17:26:30;4.70;1.00
31975;DHT22;18500;43.618;1.474;2023-01-30T17:28:56;4.50;1.00
31975;DHT22;18500;43.618;1.474;2023-01-30T17:31:22;4.40;1.00
31975;DHT22;18500;43.618;1.474;2023-01-30T17:33:47;4.40;1.00
31975;DHT22;18500;43.618;1.474;2023-01-30T17:36:20;4.40;1.00
31975;DHT22;18500;43.618;1.474;2023-01-30T17:38:47;4.40;1.00
31975;DHT22;18500;43.618;1.474;2023-01-30T17:41:18;4.40;1.00
31975;DHT22;18500;43.618;1.474;2023-01-30T17:43:44;4.30;1.00
31975;DHT22;18500;43.618;1.474;2023-01-30T17:46:11;4.30;1.00
31975;DHT22;18500;43.618;1.474;2023-01-30T17:48:37;4.30;1.00
31975;DHT22;18500;43.618;1.474;2023-01-30T17:51:03;4.20;1.00
31975;DHT22;18500;43.618;1.474;2023-01-30T17:53:29;4.30;1.00
31975;DHT22;18500;43.618;1.474;2023-01-30T17:55:54;4.30;1.00
31975;DHT22;18500;43.618;1.474;2023-01-30T17:58:20;4.30;1.00
31975;DHT22;18500;43.618;1.474;2023-01-30T18:00:46;4.30;1.00
31975;DHT22;18500;43.618;1.474;2023-01-30T18:03:12;4.20;1.00
31975;DHT22;18500;43.618;1.474;2023-01-30T18:05:39;4.30;1.00
31975;DHT22;18500;43.618;1.474;2023-01-30T18:08:05;4.30;1.00
31975;DHT22;18500;43.618;1.474;2023-01-30T18:10:30;4.20;1.00
31975;DHT22;18500;43.618;1.474;2023-01-30T18:12:56;4.20;1.00
31975;DHT22;18500;43.618;1.474;2023-01-30T18:15:22;4.20;1.00
31975;DHT22;18500;43.618;1.474;2023-01-30T18:17:48;4.10;1.00
31975;DHT22;18500;43.618;1.474;2023-01-30T18:20:18;4.10;1.00
31975;DHT22;18500;43.618;1.474;2023-01-30T18:22:44;4.10;1.00
31975;DHT22;18500;43.618;1.474;2023-01-30T18:25:10;3.80;1.00
31975;DHT22;18500;43.618;1.474;2023-01-30T18:27:40;3.70;1.00
31975;DHT22;18500;43.618;1.474;2023-01-30T18:30:12;3.50;1.00
31975;DHT22;18500;43.618;1.474;2023-01-30T18:32:38;3.40;1.00
31975;DHT22;18500;43.618;1.474;2023-01-30T18:35:04;3.30;1.00
31975;DHT22;18500;43.618;1.474;2023-01-30T18:37:29;3.30;1.00
31975;DHT22;18500;43.618;1.474;2023-01-30T18:39:56;3.30;1.00
31975;DHT22;18500;43.618;1.474;2023-01-30T18:42:21;3.20;1.00
31975;DHT22;18500;43.618;1.474;2023-01-30T18:44:47;3.20;1.00
31975;DHT22;18500;43.618;1.474;2023-01-30T18:47:13;3.10;1.00
31975;DHT22;18500;43.618;1.474;2023-01-30T18:49:38;3.10;1.00
31975;DHT22;18500;43.618;1.474;2023-01-30T18:52:04;3.10;1.00
31975;DHT22;18500;43.618;1.474;2023-01-30T18:54:30;3.10;1.00
31975;DHT22;18500;43.618;1.474;2023-01-30T18:56:56;3.00;1.00
31975;DHT22;18500;43.618;1.474;2023-01-30T18:59:22;2.90;1.00
31975;DHT22;18500;43.618;1.474;2023-01-30T19:01:47;2.90;1.00
31975;DHT22;18500;43.618;1.474;2023-01-30T19:04:13;3.00;1.00
31975;DHT22;18500;43.618;1.474;2023-01-30T19:06:41;3.30;1.00
31975;DHT22;18500;43.618;1.474;2023-01-30T19:09:10;3.50;1.00
31975;DHT22;18500;43.618;1.474;2023-01-30T19:11:36;3.50;1.00
31975;DHT22;18500;43.618;1.474;2023-01-30T19:14:20;3.60;1.00
31975;DHT22;18500;43.618;1.474;2023-01-30T19:16:46;3.70;1.00
31975;DHT22;18500;43.618;1.474;2023-01-30T19:19:11;3.70;1.00
31975;DHT22;18500;43.618;1.474;2023-01-30T19:21:37;3.70;1.00
31975;DHT22;18500;43.618;1.474;2023-01-30T19:24:05;3.40;1.00
31975;DHT22;18500;43.618;1.474;2023-01-30T19:26:31;3.10;1.00
31975;DHT22;18500;43.618;1.474;2023-01-30T19:28:57;3.10;1.00
31975;DHT22;18500;43.618;1.474;2023-01-30T19:31:23;3.00;1.00
31975;DHT22;18500;43.618;1.474;2023-01-30T19:33:54;3.00;1.00
31975;DHT22;18500;43.618;1.474;2023-01-30T19:36:21;3.20;1.00
31975;DHT22;18500;43.618;1.474;2023-01-30T19:38:48;3.10;1.00
31975;DHT22;18500;43.618;1.474;2023-01-30T19:41:21;2.90;1.00
31975;DHT22;18500;43.618;1.474;2023-01-30T19:43:49;2.80;1.00
31975;DHT22;18500;43.618;1.474;2023-01-30T19:46:15;2.80;1.00
31975;DHT22;18500;43.618;1.474;2023-01-30T19:48:42;2.80;1.00
31975;DHT22;18500;43.618;1.474;2023-01-30T19:51:30;2.70;1.00
31975;DHT22;18500;43.618;1.474;2023-01-30T19:54:02;2.60;1.00
31975;DHT22;18500;43.618;1.474;2023-01-30T19:56:29;2.70;1.00
31975;DHT22;18500;43.618;1.474;2023-01-30T19:58:57;2.70;1.00
31975;DHT22;18500;43.618;1.474;2023-01-30T20:01:25;2.70;1.00
31975;DHT22;18500;43.618;1.474;2023-01-30T20:03:54;2.50;1.00
31975;DHT22;18500;43.618;1.474;2023-01-30T20:06:26;2.40;1.00
31975;DHT22;18500;43.618;1.474;2023-01-30T20:08:58;2.30;1.00
31975;DHT22;18500;43.618;1.474;2023-01-30T20:11:25;2.20;1.00
31975;DHT22;18500;43.618;1.474;2023-01-30T20:13:51;2.20;1.00
31975;DHT22;18500;43.618;1.474;2023-01-30T20:16:23;2.20;1.00
31975;DHT22;18500;43.618;1.474;2023-01-30T20:19:11;2.10;1.00
31975;DHT22;18500;43.618;1.474;2023-01-30T20:21:37;2.10;1.00
31975;DHT22;18500;43.618;1.474;2023-01-30T20:24:03;2.10;1.00
31975;DHT22;18500;43.618;1.474;2023-01-30T20:26:31;2.10;1.00
31975;DHT22;18500;43.618;1.474;2023-01-30T20:28:59;2.20;1.00
31975;DHT22;18500;43.618;1.474;2023-01-30T20:31:27;2.10;1.00
31975;DHT22;18500;43.618;1.474;2023-01-30T20:33:53;2.00;1.00
31975;DHT22;18500;43.618;1.474;2023-01-30T20:36:23;2.00;1.00
31975;DHT22;18500;43.618;1.474;2023-01-30T20:38:50;2.10;1.00
31975;DHT22;18500;43.618;1.474;2023-01-30T20:41:20;2.10;1.00
31975;DHT22;18500;43.618;1.474;2023-01-30T20:43:49;2.10;1.00
31975;DHT22;18500;43.618;1.474;2023-01-30T20:46:24;2.20;1.00
31975;DHT22;18500;43.618;1.474;2023-01-30T20:48:51;2.30;1.00
31975;DHT22;18500;43.618;1.474;2023-01-30T20:51:19;2.30;1.00
31975;DHT22;18500;43.618;1.474;2023-01-30T20:53:50;2.40;1.00
31975;DHT22;18500;43.618;1.474;2023-01-30T20:56:17;2.30;1.00
31975;DHT22;18500;43.618;1.474;2023-01-30T20:58:43;2.20;1.00
31975;DHT22;18500;43.618;1.474;2023-01-30T21:01:17;2.10;1.00
31975;DHT22;18500;43.618;1.474;2023-01-30T21:03:43;2.10;1.00
31975;DHT22;18500;43.618;1.474;2023-01-30T21:06:10;2.00;1.00
31975;DHT22;18500;43.618;1.474;2023-01-30T21:08:39;2.00;1.00
31975;DHT22;18500;43.618;1.474;2023-01-30T21:11:09;2.00;1.00
31975;DHT22;18500;43.618;1.474;2023-01-30T21:13:35;2.00;1.00
31975;DHT22;18500;43.618;1.474;2023-01-30T21:16:06;1.90;1.00
31975;DHT22;18500;43.618;1.474;2023-01-30T21:18:34;2.00;1.00
31975;DHT22;18500;43.618;1.474;2023-01-30T21:21:00;2.00;1.00
31975;DHT22;18500;43.618;1.474;2023-01-30T21:23:26;2.10;1.00
31975;DHT22;18500;43.618;1.474;2023-01-30T21:25:52;2.10;1.00
31975;DHT22;18500;43.618;1.474;2023-01-30T21:28:18;2.00;1.00
31975;DHT22;18500;43.618;1.474;2023-01-30T21:30:44;2.00;1.00
31975;DHT22;18500;43.618;1.474;2023-01-30T21:33:11;1.80;1.00
31975;DHT22;18500;43.618;1.474;2023-01-30T21:35:37;1.70;1.00
31975;DHT22;18500;43.618;1.474;2023-01-30T21:38:02;1.60;1.00
31975;DHT22;18500;43.618;1.474;2023-01-30T21:40:51;1.50;1.00
31975;DHT22;18500;43.618;1.474;2023-01-30T21:43:35;1.50;1.00
31975;DHT22;18500;43.618;1.474;2023-01-30T21:46:01;1.50;1.00
31975;DHT22;18500;43.618;1.474;2023-01-30T21:48:27;1.40;1.00
31975;DHT22;18500;43.618;1.474;2023-01-30T21:50:52;1.40;1.00
31975;DHT22;18500;43.618;1.474;2023-01-30T21:53:18;1.30;1.00
31975;DHT22;18500;43.618;1.474;2023-01-30T21:55:49;1.30;1.00
31975;DHT22;18500;43.618;1.474;2023-01-30T21:58:16;1.30;1.00
31975;DHT22;18500;43.618;1.474;2023-01-30T22:00:41;1.30;1.00
31975;DHT22;18500;43.618;1.474;2023-01-30T22:03:07;1.40;1.00
31975;DHT22;18500;43.618;1.474;2023-01-30T22:05:33;1.60;1.00
31975;DHT22;18500;43.618;1.474;2023-01-30T22:08:01;1.90;1.00
31975;DHT22;18500;43.618;1.474;2023-01-30T22:10:26;2.00;1.00
31975;DHT22;18500;43.618;1.474;2023-01-30T22:12:52;2.10;1.00
31975;DHT22;18500;43.618;1.474;2023-01-30T22:15:18;2.20;1.00
31975;DHT22;18500;43.618;1.474;2023-01-30T22:17:50;2.30;1.00
31975;DHT22;18500;43.618;1.474;2023-01-30T22:20:15;2.30;1.00
31975;DHT22;18500;43.618;1.474;2023-01-30T22:22:41;2.40;1.00
31975;DHT22;18500;43.618;1.474;2023-01-30T22:25:07;2.50;1.00
31975;DHT22;18500;43.618;1.474;2023-01-30T22:27:33;2.30;1.00
31975;DHT22;18500;43.618;1.474;2023-01-30T22:29:59;2.30;1.00
31975;DHT22;18500;43.618;1.474;2023-01-30T22:32:24;2.50;1.00
31975;DHT22;18500;43.618;1.474;2023-01-30T22:34:50;2.50;1.00
31975;DHT22;18500;43.618;1.474;2023-01-30T22:37:15;2.50;1.00
31975;DHT22;18500;43.618;1.474;2023-01-30T22:39:41;2.50;1.00
31975;DHT22;18500;43.618;1.474;2023-01-30T22:42:07;2.60;1.00
31975;DHT22;18500;43.618;1.474;2023-01-30T22:44:33;2.70;1.00
31975;DHT22;18500;43.618;1.474;2023-01-30T22:46:59;2.70;1.00
31975;DHT22;18500;43.618;1.474;2023-01-30T22:49:25;2.70;1.00
31975;DHT22;18500;43.618;1.474;2023-01-30T22:51:50;2.80;1.00
31975;DHT22;18500;43.618;1.474;2023-01-30T22:54:16;2.80;1.00
31975;DHT22;18500;43.618;1.474;2023-01-30T22:56:44;2.80;1.00
31975;DHT22;18500;43.618;1.474;2023-01-30T22:59:11;2.90;1.00
31975;DHT22;18500;43.618;1.474;2023-01-30T23:01:42;3.00;1.00
31975;DHT22;18500;43.618;1.474;2023-01-30T23:04:17;2.90;1.00
31975;DHT22;18500;43.618;1.474;2023-01-30T23:06:43;2.90;1.00
31975;DHT22;18500;43.618;1.474;2023-01-30T23:09:13;3.00;1.00
31975;DHT22;18500;43.618;1.474;2023-01-30T23:11:54;2.90;1.00
31975;DHT22;18500;43.618;1.474;2023-01-30T23:14:39;2.90;1.00
31975;DHT22;18500;43.618;1.474;2023-01-30T23:17:07;3.00;1.00
31975;DHT22;18500;43.618;1.474;2023-01-30T23:19:52;3.00;1.00
31975;DHT22;18500;43.618;1.474;2023-01-30T23:22:18;3.00;1.00
31975;DHT22;18500;43.618;1.474;2023-01-30T23:24:44;3.00;1.00
31975;DHT22;18500;43.618;1.474;2023-01-30T23:27:09;3.00;1.00
31975;DHT22;18500;43.618;1.474;2023-01-30T23:29:35;3.00;1.00
31975;DHT22;18500;43.618;1.474;2023-01-30T23:32:01;2.90;1.00
31975;DHT22;18500;43.618;1.474;2023-01-30T23:34:27;2.80;1.00
31975;DHT22;18500;43.618;1.474;2023-01-30T23:36:53;2.90;1.00
31975;DHT22;18500;43.618;1.474;2023-01-30T23:39:18;2.80;1.00
31975;DHT22;18500;43.618;1.474;2023-01-30T23:41:44;2.80;1.00
31975;DHT22;18500;43.618;1.474;2023-01-30T23:44:10;2.70;1.00
31975;DHT22;18500;43.618;1.474;2023-01-30T23:46:40;2.70;1.00
31975;DHT22;18500;43.618;1.474;2023-01-30T23:49:09;2.70;1.00
31975;DHT22;18500;43.618;1.474;2023-01-30T23:51:36;2.60;1.00
31975;DHT22;18500;43.618;1.474;2023-01-30T23:54:03;2.70;1.00
31975;DHT22;18500;43.618;1.474;2023-01-30T23:56:31;2.60;1.00
31975;DHT22;18500;43.618;1.474;2023-01-30T23:58:57;2.70;1.00
